Sanbornville, New Hampshire
Current Conditions -  °F | °C
As of 4:15 AM on Thursday 27 Nov 2014 (Local Time) from KSFM Reporting Station
Broken Clouds Broken Clouds  
Wind Chill: 19°   Ceiling: 1400
Heat Index: 30°   Visibility: 5mi
Dew Point: 25°   Wind: 15mph
Humidity: 80%   Direction: 330°NNW
Pressure: 29.75"   Gusts: 18mph
Location:  43.55°N, 71.03°W
Report Text: KSFM 270915Z AUTO 33013G16KT 5SM BKN014 BKN029 M01/M04 A2975 RMK AO1
Loading
Personal Weather Stations






























Interactive Weather Map New forecast layout! Learn more

10-Day Weather Forecast

Advertisements
Track Severe Weather on mobile